Time;durP1;ratioP1;P1;durP2;ratioP2;P2;SDS_P1;SDS_P2;PMS_P1;PMS_P2;Temp;Humidity;BMP_temperature;BMP_pressure;BME280_temperature;BME280_humidity;BME280_pressure;Samples;Min_cycle;Max_cycle;Signal;HPM_P1;HPM_P2
2023/11/01 01:10:15;;;;;;;1.25;0.70;;;12.00;92.60;;;;;;5759127;24;20023;-77
2023/11/01 01:12:49;;;;;;;0.40;0.40;;;12.00;92.60;;;;;;5742660;24;20028;-77
2023/11/01 01:15:25;;;;;;;0.70;0.50;;;12.10;92.60;;;;;;5742411;24;20024;-77
2023/11/01 01:18:28;;;;;;;1.00;0.63;;;12.10;92.60;;;;;;5724113;25;20025;-77
2023/11/01 01:20:55;;;;;;;1.50;0.70;;;12.00;92.60;;;;;;5759361;24;20024;-77
2023/11/01 01:23:20;;;;;;;1.95;0.70;;;12.00;92.60;;;;;;5736258;24;20024;-77
2023/11/01 01:25:46;;;;;;;0.98;0.90;;;12.00;92.60;;;;;;5697879;24;20035;-77
2023/11/01 01:28:12;;;;;;;1.52;0.85;;;12.00;92.60;;;;;;5665628;25;20375;-77
2023/11/01 01:30:37;;;;;;;1.52;0.98;;;12.00;92.70;;;;;;5686933;25;20036;-77
2023/11/01 01:33:03;;;;;;;0.70;0.70;;;12.00;92.70;;;;;;5694905;25;20035;-77
2023/11/01 01:35:28;;;;;;;2.45;1.00;;;12.00;92.70;;;;;;5736151;24;20033;-77
2023/11/01 01:37:54;;;;;;;2.25;0.90;;;12.00;92.70;;;;;;5869894;24;20074;-77
2023/11/01 01:40:20;;;;;;;1.58;1.00;;;12.00;92.70;;;;;;5943169;23;20019;-78
2023/11/01 01:42:46;;;;;;;1.00;0.90;;;12.00;92.70;;;;;;6018172;23;20022;-77
2023/11/01 01:45:11;;;;;;;1.58;0.73;;;12.00;92.70;;;;;;6041661;23;20015;-77
2023/11/01 01:47:37;;;;;;;1.38;0.73;;;12.00;92.70;;;;;;6093011;23;20490;-77
2023/11/01 01:50:04;;;;;;;2.13;0.98;;;12.00;92.70;;;;;;6093391;23;20049;-77
2023/11/01 01:52:31;;;;;;;0.80;0.70;;;12.00;92.80;;;;;;6070386;23;20010;-77
2023/11/01 01:54:56;;;;;;;1.10;0.80;;;12.00;92.80;;;;;;6065001;23;20003;-77
2023/11/01 01:57:24;;;;;;;1.27;1.00;;;12.00;92.80;;;;;;6107301;23;20009;-77
2023/11/01 01:59:52;;;;;;;1.05;0.75;;;12.00;92.80;;;;;;6219353;23;20446;-77
2023/11/01 02:02:18;;;;;;;0.73;0.68;;;12.00;92.80;;;;;;6189647;23;20058;-77
2023/11/01 02:04:44;;;;;;;1.67;0.85;;;12.00;92.80;;;;;;6217494;23;20014;-77
2023/11/01 02:07:10;;;;;;;1.10;0.63;;;11.90;92.80;;;;;;6242587;23;20016;-77
2023/11/01 02:09:37;;;;;;;1.23;0.90;;;11.90;92.80;;;;;;6244579;23;20366;-74
2023/11/01 02:12:03;;;;;;;1.70;0.85;;;12.00;92.90;;;;;;6212809;23;20047;-77
2023/11/01 02:14:29;;;;;;;0.75;0.60;;;11.90;92.80;;;;;;6217466;23;20091;-77
2023/11/01 02:16:54;;;;;;;1.67;0.70;;;11.90;92.90;;;;;;6217647;23;20095;-77
2023/11/01 02:19:22;;;;;;;1.30;0.70;;;11.90;92.80;;;;;;6244457;23;20036;-77
2023/11/01 02:21:48;;;;;;;0.50;0.50;;;11.90;92.90;;;;;;6244816;23;20435;-77
2023/11/01 02:24:13;;;;;;;1.23;0.75;;;11.90;92.90;;;;;;6167892;23;20039;-77
2023/11/01 02:26:39;;;;;;;0.80;0.60;;;11.90;92.90;;;;;;6217684;23;20011;-77
2023/11/01 02:29:05;;;;;;;1.02;0.70;;;11.90;92.90;;;;;;6244300;23;20019;-77
2023/11/01 02:31:30;;;;;;;0.73;0.60;;;11.90;92.90;;;;;;6244604;23;20087;-77
2023/11/01 02:33:56;;;;;;;0.75;0.70;;;11.90;92.90;;;;;;6244128;23;20008;-77
2023/11/01 02:36:22;;;;;;;0.98;0.50;;;11.80;92.80;;;;;;6244214;23;20518;-77
2023/11/01 02:38:47;;;;;;;1.02;0.63;;;11.90;92.80;;;;;;6217102;23;20044;-77
2023/11/01 02:41:14;;;;;;;2.17;0.70;;;11.80;92.80;;;;;;6192691;23;20023;-77
2023/11/01 02:43:40;;;;;;;0.50;0.50;;;11.90;92.90;;;;;;6244231;23;20487;-77
2023/11/01 02:46:05;;;;;;;1.50;0.50;;;11.90;92.80;;;;;;6217646;23;20036;-77
2023/11/01 02:48:31;;;;;;;1.33;0.60;;;11.80;92.80;;;;;;6244846;23;20004;-77
2023/11/01 02:50:56;;;;;;;2.28;0.82;;;11.90;92.80;;;;;;6244307;23;20004;-77
2023/11/01 02:53:22;;;;;;;1.63;0.70;;;11.80;92.80;;;;;;6244142;23;20386;-77
2023/11/01 02:55:48;;;;;;;0.63;0.50;;;11.90;92.80;;;;;;6217362;23;20076;-77
2023/11/01 02:58:13;;;;;;;0.60;0.50;;;11.80;92.80;;;;;;6244106;23;20170;-77
2023/11/01 03:00:39;;;;;;;0.40;0.40;;;11.90;92.90;;;;;;6244515;23;20428;-77
2023/11/01 03:03:05;;;;;;;1.45;0.55;;;11.80;92.90;;;;;;6217289;23;20445;-77
2023/11/01 03:05:30;;;;;;;1.50;0.50;;;11.80;92.90;;;;;;6244087;23;20104;-77
2023/11/01 03:07:56;;;;;;;1.27;0.50;;;11.80;92.90;;;;;;6244966;23;20332;-77
2023/11/01 03:10:22;;;;;;;0.57;0.30;;;11.80;92.90;;;;;;6214677;23;20013;-78
2023/11/01 03:12:48;;;;;;;0.40;0.32;;;11.80;92.90;;;;;;6244392;23;20432;-77
2023/11/01 03:15:14;;;;;;;0.40;0.40;;;11.80;92.90;;;;;;6217446;23;20012;-77
2023/11/01 03:17:42;;;;;;;0.52;0.50;;;11.90;93.00;;;;;;6244094;23;20015;-77
2023/11/01 03:20:08;;;;;;;0.50;0.40;;;11.80;93.00;;;;;;6217807;23;20008;-78
2023/11/01 03:22:34;;;;;;;0.30;0.30;;;11.90;93.00;;;;;;6244718;23;20436;-77
2023/11/01 03:25:01;;;;;;;0.55;0.40;;;11.80;93.00;;;;;;6192174;23;20087;-78
2023/11/01 03:27:26;;;;;;;0.40;0.40;;;11.90;93.10;;;;;;6244686;23;20008;-77
2023/11/01 03:29:53;;;;;;;1.02;0.35;;;11.80;93.00;;;;;;6217680;23;20015;-77
2023/11/01 03:32:19;;;;;;;0.30;0.30;;;11.90;93.10;;;;;;6217589;23;20345;-77
2023/11/01 03:34:45;;;;;;;0.30;0.30;;;11.90;93.00;;;;;;6240696;23;20011;-77
2023/11/01 03:37:11;;;;;;;0.75;0.30;;;11.80;93.00;;;;;;6217340;23;20008;-77
2023/11/01 03:39:36;;;;;;;0.30;0.30;;;11.90;93.10;;;;;;6244903;23;20082;-77
2023/11/01 03:42:04;;;;;;;0.68;0.40;;;11.90;93.10;;;;;;6218195;23;20504;-77
2023/11/01 03:44:32;;;;;;;0.50;0.30;;;11.90;93.10;;;;;;6244474;23;20311;-77
2023/11/01 03:46:58;;;;;;;0.30;0.30;;;11.90;93.10;;;;;;6215020;23;20012;-77
2023/11/01 03:49:29;;;;;;;0.47;0.40;;;11.80;93.10;;;;;;6244156;23;20008;-77
2023/11/01 03:51:56;;;;;;;;;;;11.80;93.00;;;;;;6244420;23;20077;-77
2023/11/01 03:54:22;;;;;;;0.73;0.38;;;11.90;93.10;;;;;;6244021;23;20355;-77
2023/11/01 03:56:48;;;;;;;0.20;0.20;;;11.80;93.10;;;;;;6244220;23;20074;-77
2023/11/01 03:59:14;;;;;;;0.55;0.30;;;11.80;93.00;;;;;;6243727;23;20008;-77
2023/11/01 04:01:40;;;;;;;0.77;0.47;;;11.90;93.10;;;;;;6217315;23;20087;-77
2023/11/01 04:04:06;;;;;;;0.47;0.47;;;11.90;93.10;;;;;;6216916;23;20035;-77
2023/11/01 04:06:32;;;;;;;1.77;0.70;;;11.90;93.10;;;;;;6242474;22;20090;-78
2023/11/01 04:08:59;;;;;;;0.70;0.50;;;11.90;93.10;;;;;;6217098;23;20486;-78
2023/11/01 04:11:24;;;;;;;0.43;0.40;;;11.80;93.00;;;;;;6217883;23;20081;-78
2023/11/01 04:13:50;;;;;;;1.02;0.47;;;11.90;93.10;;;;;;6244521;23;20444;-78
2023/11/01 04:16:16;;;;;;;0.30;0.30;;;11.80;93.10;;;;;;6216706;23;20343;-78
2023/11/01 04:18:43;;;;;;;0.32;0.32;;;11.80;93.10;;;;;;6243805;23;20008;-78
2023/11/01 04:21:09;;;;;;;0.30;0.30;;;11.90;93.10;;;;;;6243580;23;20012;-78
2023/11/01 04:23:34;;;;;;;0.40;0.40;;;11.80;93.10;;;;;;6217289;23;20044;-78
2023/11/01 04:26:00;;;;;;;1.95;0.40;;;11.90;93.10;;;;;;6243772;23;19996;-78
2023/11/01 04:28:26;;;;;;;0.40;0.30;;;11.70;93.10;;;;;;6217117;23;20004;-78
2023/11/01 04:30:52;;;;;;;1.00;0.40;;;11.80;93.10;;;;;;6216931;23;20050;-78
2023/11/01 04:33:18;;;;;;;0.30;0.30;;;11.90;93.10;;;;;;6243764;23;20009;-78
2023/11/01 04:35:44;;;;;;;0.93;0.60;;;11.90;93.10;;;;;;6217309;23;20440;-78
2023/11/01 04:38:11;;;;;;;0.45;0.40;;;11.80;93.10;;;;;;6167674;23;20436;-78
2023/11/01 04:40:37;;;;;;;1.30;0.40;;;11.90;93.10;;;;;;6217073;23;20008;-78
2023/11/01 04:43:03;;;;;;;0.82;0.40;;;11.80;93.10;;;;;;6167457;23;20305;-78
2023/11/01 04:45:31;;;;;;;1.08;0.50;;;11.80;93.10;;;;;;6240497;22;20008;-78
2023/11/01 04:47:57;;;;;;;0.45;0.45;;;11.80;93.10;;;;;;6217655;23;20062;-78
2023/11/01 04:50:23;;;;;;;0.52;0.47;;;11.80;93.10;;;;;;6242095;23;20016;-79
2023/11/01 04:52:49;;;;;;;0.60;0.50;;;11.80;93.10;;;;;;6191846;23;20317;-78
2023/11/01 04:55:15;;;;;;;0.60;0.50;;;11.80;93.10;;;;;;6238636;22;20012;-78
2023/11/01 04:57:41;;;;;;;0.40;0.38;;;11.80;93.40;;;;;;6192332;23;20434;-78
2023/11/01 05:00:09;;;;;;;0.52;0.50;;;11.80;93.10;;;;;;6245000;23;20023;-77
2023/11/01 05:02:36;;;;;;;0.65;0.60;;;11.80;93.10;;;;;;6193365;23;20340;-75
2023/11/01 05:05:05;;;;;;;0.60;0.50;;;11.90;93.10;;;;;;6245179;23;20427;-79
2023/11/01 05:07:32;;;;;;;0.43;0.43;;;11.90;93.10;;;;;;6245394;23;20066;-77
2023/11/01 05:09:57;;;;;;;0.35;0.35;;;11.90;93.10;;;;;;6218285;23;20321;-77
2023/11/01 05:12:23;;;;;;;0.45;0.45;;;11.90;93.20;;;;;;6218011;23;20008;-78
2023/11/01 05:14:49;;;;;;;0.43;0.40;;;11.90;93.10;;;;;;6215621;23;20015;-77
2023/11/01 05:17:14;;;;;;;0.40;0.40;;;11.90;93.10;;;;;;6218139;22;20012;-78
2023/11/01 05:19:40;;;;;;;1.65;0.55;;;11.90;93.10;;;;;;6218830;23;19996;-78
2023/11/01 05:22:06;;;;;;;0.65;0.60;;;11.80;93.10;;;;;;6245217;23;20412;-78
2023/11/01 05:24:31;;;;;;;0.40;0.40;;;12.00;93.10;;;;;;6217890;23;20062;-78
2023/11/01 05:26:57;;;;;;;0.60;0.55;;;12.00;93.10;;;;;;6218127;23;20004;-78
2023/11/01 05:29:23;;;;;;;0.40;0.40;;;12.00;93.10;;;;;;6193386;23;20008;-78
2023/11/01 05:31:48;;;;;;;0.43;0.40;;;12.10;93.10;;;;;;6244860;23;20031;-78
2023/11/01 05:34:14;;;;;;;0.55;0.55;;;12.10;93.10;;;;;;6218261;23;20012;-78
2023/11/01 05:36:40;;;;;;;0.70;0.50;;;12.10;93.10;;;;;;6245556;23;20012;-78
2023/11/01 05:39:07;;;;;;;0.45;0.45;;;12.10;93.10;;;;;;6218279;23;20023;-78
2023/11/01 05:41:33;;;;;;;0.55;0.50;;;12.10;93.10;;;;;;6244989;23;20086;-78
2023/11/01 05:43:59;;;;;;;0.50;0.50;;;12.20;93.10;;;;;;6217718;23;20043;-78
2023/11/01 05:46:26;;;;;;;0.80;0.70;;;12.20;93.10;;;;;;6245256;23;20004;-78
2023/11/01 05:48:51;;;;;;;0.73;0.73;;;12.20;93.10;;;;;;6243798;22;20336;-77
2023/11/01 05:51:17;;;;;;;1.30;0.60;;;12.20;93.10;;;;;;6244632;23;20019;-78
2023/11/01 05:53:44;;;;;;;0.57;0.52;;;12.20;93.10;;;;;;6218101;23;20008;-79
2023/11/01 05:56:11;;;;;;;0.47;0.47;;;12.30;93.10;;;;;;6245461;23;20420;-79
2023/11/01 05:58:37;;;;;;;1.45;0.60;;;12.20;93.10;;;;;;6244956;23;20090;-78
2023/11/01 06:01:04;;;;;;;0.70;0.65;;;12.30;93.10;;;;;;6217987;23;20027;-78
2023/11/01 06:03:30;;;;;;;1.58;0.70;;;12.40;93.10;;;;;;6193112;23;20004;-78
2023/11/01 06:05:57;;;;;;;1.25;0.65;;;12.30;93.10;;;;;;6219926;23;20004;-78
2023/11/01 06:08:24;;;;;;;0.77;0.70;;;12.30;93.10;;;;;;6246464;23;20004;-78
2023/11/01 06:10:50;;;;;;;0.80;0.70;;;12.30;93.10;;;;;;6218479;23;20062;-78
2023/11/01 06:13:15;;;;;;;1.27;0.60;;;12.40;93.10;;;;;;6246521;23;20004;-79
2023/11/01 06:15:41;;;;;;;1.35;0.90;;;12.40;93.10;;;;;;6243266;23;20000;-78
2023/11/01 06:18:07;;;;;;;0.70;0.60;;;12.40;93.10;;;;;;6244786;23;20008;-77
2023/11/01 06:20:34;;;;;;;1.73;0.70;;;12.50;93.10;;;;;;6168242;23;20011;-78
2023/11/01 06:23:00;;;;;;;2.67;0.80;;;12.50;93.10;;;;;;6218748;23;20425;-78
2023/11/01 06:25:26;;;;;;;1.70;0.73;;;12.50;93.10;;;;;;6217671;23;20011;-78
2023/11/01 06:27:52;;;;;;;1.60;0.68;;;12.50;93.10;;;;;;6218193;23;20052;-78
2023/11/01 06:30:18;;;;;;;0.82;0.70;;;12.50;93.10;;;;;;6193201;23;20019;-77
2023/11/01 06:32:44;;;;;;;1.35;0.65;;;12.50;93.10;;;;;;6244970;23;20057;-78
2023/11/01 06:35:10;;;;;;;1.52;0.57;;;12.50;93.10;;;;;;6167889;23;20091;-78
2023/11/01 06:37:36;;;;;;;1.30;0.60;;;12.60;93.10;;;;;;6245176;23;20008;-78
2023/11/01 06:40:02;;;;;;;1.58;0.80;;;12.60;93.10;;;;;;6193707;23;20431;-77
2023/11/01 06:42:28;;;;;;;1.60;0.70;;;12.60;93.10;;;;;;6242336;23;20008;-78
2023/11/01 06:44:54;;;;;;;1.42;0.80;;;12.60;93.10;;;;;;6218528;23;20004;-78
2023/11/01 06:47:20;;;;;;;1.50;0.70;;;12.60;93.10;;;;;;6245512;23;20008;-77
2023/11/01 06:49:47;;;;;;;3.05;0.80;;;12.60;93.10;;;;;;6168269;23;20092;-78
2023/11/01 06:52:13;;;;;;;1.35;0.80;;;12.60;93.10;;;;;;6218134;23;20004;-78
2023/11/01 06:54:40;;;;;;;2.45;0.57;;;12.60;93.10;;;;;;6244316;23;20069;-77
2023/11/01 06:57:07;;;;;;;1.85;0.80;;;12.70;93.10;;;;;;6217981;23;20099;-77
2023/11/01 06:59:33;;;;;;;0.85;0.70;;;12.70;93.10;;;;;;6218156;23;20019;-77
2023/11/01 07:01:58;;;;;;;0.98;0.60;;;12.70;93.10;;;;;;6218298;23;20004;-77
2023/11/01 07:04:24;;;;;;;1.17;0.60;;;12.70;93.10;;;;;;6243227;22;20008;-78
2023/11/01 07:06:50;;;;;;;1.65;0.98;;;12.70;93.10;;;;;;6244635;23;20040;-78
2023/11/01 07:09:16;;;;;;;2.22;1.05;;;12.80;93.10;;;;;;6244437;23;20463;-74
2023/11/01 07:11:41;;;;;;;1.50;0.80;;;12.70;93.00;;;;;;6244460;23;20016;-77
2023/11/01 07:14:09;;;;;;;3.38;0.88;;;12.80;93.10;;;;;;6244227;23;20168;-77
2023/11/01 07:16:39;;;;;;;0.85;0.68;;;12.80;93.10;;;;;;6218210;23;20018;-77
2023/11/01 07:19:06;;;;;;;0.73;0.60;;;12.80;93.00;;;;;;6219450;23;20315;-77
2023/11/01 07:21:32;;;;;;;1.23;0.80;;;12.80;93.00;;;;;;6241846;23;20075;-74
2023/11/01 07:23:57;;;;;;;1.45;0.80;;;12.80;93.00;;;;;;6243920;23;20034;-77
2023/11/01 07:26:23;;;;;;;3.05;0.90;;;12.80;93.00;;;;;;6243972;23;20004;-78
2023/11/01 07:28:49;;;;;;;1.30;0.85;;;12.90;93.10;;;;;;6217558;23;20350;-77
2023/11/01 07:31:15;;;;;;;3.22;0.93;;;12.90;93.10;;;;;;6244720;23;20428;-77
2023/11/01 07:33:45;;;;;;;1.35;0.90;;;12.80;93.00;;;;;;6244073;23;20999;-78
2023/11/01 07:36:18;;;;;;;1.25;0.80;;;12.90;93.00;;;;;;6217874;23;20012;-78
2023/11/01 07:46:08;;;;;;;1.52;0.60;;;12.90;93.00;;;;;;6088783;23;20054;-76
2023/11/01 07:48:39;;;;;;;1.92;0.77;;;12.90;93.00;;;;;;6003119;23;20072;-76
2023/11/01 07:51:37;;;;;;;2.40;0.82;;;12.90;93.00;;;;;;5983048;23;20043;-76
2023/11/01 07:54:38;;;;;;;1.25;0.70;;;12.90;93.00;;;;;;5975452;23;20876;-78
2023/11/01 08:01:36;;;;;;;0.70;0.70;;;13.00;93.00;;;;;;5919588;24;20041;-78
2023/11/01 08:18:37;;;;;;;1.65;0.75;;;13.10;92.90;;;;;;5839441;24;20104;-78
2023/11/01 08:25:47;;;;;;;0.88;0.60;;;13.10;92.80;;;;;;5924958;24;20066;-77
2023/11/01 08:32:47;;;;;;;0.95;0.68;;;13.20;92.80;;;;;;5922836;24;20068;-78
2023/11/01 09:03:30;;;;;;;2.05;0.90;;;13.40;92.60;;;;;;5171128;27;20475;-80
2023/11/01 09:06:38;;;;;;;1.92;0.80;;;13.30;92.50;;;;;;5066404;28;20104;-79
2023/11/01 09:09:22;;;;;;;1.42;0.70;;;13.40;92.60;;;;;;5035158;28;20049;-78
2023/11/01 09:11:50;;;;;;;2.25;0.80;;;13.50;92.60;;;;;;5033875;28;20044;-78
2023/11/01 09:14:50;;;;;;;1.48;0.73;;;13.40;92.50;;;;;;5027059;28;20045;-78
2023/11/01 09:17:25;;;;;;;2.03;0.60;;;13.40;92.50;;;;;;5019807;28;20132;-78
2023/11/01 09:21:05;;;;;;;1.67;0.68;;;13.50;92.60;;;;;;4973390;28;20114;-79
2023/11/01 09:24:01;;;;;;;2.90;0.73;;;13.60;92.50;;;;;;4995598;28;20104;-79
2023/11/01 09:26:30;;;;;;;2.05;0.70;;;13.60;92.50;;;;;;5007427;28;20468;-77
2023/11/01 09:29:01;;;;;;;2.92;0.70;;;13.50;92.40;;;;;;4977471;28;20038;-78
2023/11/01 09:31:45;;;;;;;;;;;13.60;92.40;;;;;;5027191;28;20041;-78
2023/11/01 09:42:39;;;;;;;1.73;0.65;;;13.60;92.30;;;;;;4947907;28;20090;-80
2023/11/01 09:45:13;;;;;;;1.48;0.68;;;13.70;92.30;;;;;;4879248;29;20049;-78
2023/11/01 09:47:49;;;;;;;0.70;0.60;;;13.60;92.30;;;;;;4888388;29;20156;-79
2023/11/01 09:50:47;;;;;;;1.95;0.70;;;13.70;92.30;;;;;;4842526;29;20072;-80
2023/11/01 09:53:26;;;;;;;1.23;0.60;;;13.70;92.30;;;;;;4843167;29;20076;-78
2023/11/01 10:00:10;;;;;;;1.85;0.75;;;13.90;92.20;;;;;;4743632;30;20168;-78
2023/11/01 10:06:32;;;;;;;1.48;0.77;;;13.90;92.00;;;;;;4644333;30;20127;-78
2023/11/01 10:09:03;;;;;;;2.13;0.50;;;14.00;92.10;;;;;;4636848;30;20066;-79
2023/11/01 10:11:58;;;;;;;2.47;0.70;;;13.90;92.00;;;;;;4651356;30;20054;-78
2023/11/01 10:15:03;;;;;;;2.20;0.95;;;14.00;92.00;;;;;;4616963;30;20545;-77
2023/11/01 10:17:30;;;;;;;1.17;0.77;;;14.00;92.00;;;;;;4684125;30;20050;-76
2023/11/01 10:19:55;;;;;;;2.60;0.70;;;14.00;92.00;;;;;;4736624;30;20052;-77
2023/11/01 10:22:21;;;;;;;1.30;0.70;;;14.00;91.90;;;;;;4782033;30;20051;-77
2023/11/01 10:24:47;;;;;;;1.02;0.57;;;14.00;91.90;;;;;;4786875;30;20043;-78
2023/11/01 10:27:13;;;;;;;1.45;0.70;;;14.10;91.90;;;;;;4808477;29;20493;-78
2023/11/01 10:30:03;;;;;;;1.60;0.60;;;14.00;91.90;;;;;;4855601;29;20045;-79
2023/11/01 10:32:59;;;;;;;1.63;0.60;;;14.10;91.90;;;;;;4845553;29;20202;-80
2023/11/01 10:35:36;;;;;;;2.25;0.70;;;14.10;92.00;;;;;;4889917;28;20035;-80
2023/11/01 10:38:25;;;;;;;2.17;0.80;;;14.10;91.90;;;;;;4995920;28;20137;-80
2023/11/01 10:41:17;;;;;;;1.60;0.65;;;14.10;91.90;;;;;;5008712;28;20046;-77
2023/11/01 10:43:58;;;;;;;1.88;0.60;;;14.10;91.80;;;;;;5117978;28;20049;-77
2023/11/01 10:46:27;;;;;;;1.90;0.50;;;14.20;91.80;;;;;;5038413;28;20032;-77
2023/11/01 10:48:53;;;;;;;3.85;0.80;;;14.20;91.80;;;;;;5072088;28;20135;-77
2023/11/01 10:51:19;;;;;;;1.85;0.57;;;14.20;91.70;;;;;;5055843;28;20076;-78
2023/11/01 10:53:46;;;;;;;1.50;0.50;;;14.20;91.70;;;;;;5055454;28;20144;-78
2023/11/01 10:56:12;;;;;;;2.50;0.70;;;14.20;91.70;;;;;;5055850;28;20498;-78
2023/11/01 10:58:43;;;;;;;1.55;0.75;;;14.20;91.70;;;;;;5071956;28;20044;-78
2023/11/01 11:01:29;;;;;;;2.08;0.88;;;14.20;91.70;;;;;;5038652;28;20071;-76
2023/11/01 11:04:24;;;;;;;1.08;0.60;;;14.20;91.60;;;;;;5055419;28;20456;-76
2023/11/01 11:07:06;;;;;;;1.23;0.65;;;14.20;91.70;;;;;;5023726;28;20044;-78
2023/11/01 11:13:51;;;;;;;1.20;0.60;;;14.30;91.70;;;;;;4972294;28;20129;-80
2023/11/01 11:16:20;;;;;;;1.80;0.77;;;14.30;91.60;;;;;;4966052;28;20039;-79
2023/11/01 11:18:56;;;;;;;1.85;0.60;;;14.40;91.50;;;;;;5012670;28;20041;-80
2023/11/01 11:21:55;;;;;;;0.90;0.60;;;14.50;91.50;;;;;;5011894;28;20519;-79
2023/11/01 11:24:46;;;;;;;1.27;0.65;;;14.50;91.70;;;;;;5011227;28;20080;-80
2023/11/01 11:27:23;;;;;;;;;;;14.50;91.30;;;;;;5012264;28;20067;-79
2023/11/01 11:29:49;;;;;;;1.20;0.70;;;14.50;91.30;;;;;;5011265;28;20366;-79
2023/11/01 11:32:21;;;;;;;0.80;0.52;;;14.50;91.30;;;;;;5011787;28;20132;-79
2023/11/01 11:34:52;;;;;;;0.88;0.77;;;14.50;91.30;;;;;;5005261;28;20508;-78
2023/11/01 11:37:28;;;;;;;1.80;0.70;;;14.60;91.30;;;;;;4974101;28;20042;-79
2023/11/01 11:40:17;;;;;;;1.63;0.80;;;14.60;91.30;;;;;;4956689;28;20049;-79
2023/11/01 11:42:48;;;;;;;1.30;0.52;;;14.70;91.30;;;;;;5002406;28;20120;-79
2023/11/01 11:45:27;;;;;;;1.67;0.80;;;14.80;91.20;;;;;;5031920;28;20142;-78
2023/11/01 11:47:54;;;;;;;0.75;0.50;;;14.80;91.20;;;;;;5033959;28;20099;-78
2023/11/01 11:50:20;;;;;;;0.85;0.70;;;14.90;91.10;;;;;;5032190;28;20080;-78
2023/11/01 11:52:46;;;;;;;0.98;0.63;;;15.00;91.00;;;;;;5032779;28;20135;-78
2023/11/01 11:55:12;;;;;;;0.85;0.60;;;15.00;90.90;;;;;;5030417;28;20504;-78
2023/11/01 11:57:38;;;;;;;3.33;0.95;;;15.00;90.90;;;;;;5017332;28;20427;-78
2023/11/01 12:00:07;;;;;;;1.55;0.85;;;15.00;90.90;;;;;;5033200;28;20053;-79
2023/11/01 12:02:34;;;;;;;1.75;0.70;;;15.10;90.80;;;;;;5050069;28;20490;-77
2023/11/01 12:05:01;;;;;;;1.77;0.90;;;15.00;90.90;;;;;;5071310;28;20056;-76
2023/11/01 12:07:27;;;;;;;2.17;0.73;;;15.10;90.90;;;;;;5079074;28;20363;-76
2023/11/01 12:09:54;;;;;;;2.65;0.80;;;15.20;90.80;;;;;;5098401;28;20054;-77
2023/11/01 12:12:21;;;;;;;0.98;0.70;;;15.20;90.70;;;;;;5115685;28;20057;-76
2023/11/01 12:15:03;;;;;;;1.20;0.70;;;15.20;90.70;;;;;;5115452;28;20070;-76
2023/11/01 12:17:29;;;;;;;0.98;0.60;;;15.30;90.60;;;;;;5134106;28;20521;-76
2023/11/01 12:19:56;;;;;;;2.33;0.70;;;15.30;90.60;;;;;;5115043;28;20043;-76
2023/11/01 12:22:22;;;;;;;1.55;0.50;;;15.30;90.50;;;;;;5115283;28;20035;-76
2023/11/01 12:24:49;;;;;;;1.40;0.60;;;15.40;90.50;;;;;;5133801;28;20035;-76
2023/11/01 12:27:19;;;;;;;0.60;0.40;;;15.30;90.40;;;;;;5081524;28;20039;-76
2023/11/01 12:29:49;;;;;;;2.97;0.60;;;15.30;90.50;;;;;;5080344;28;20032;-76
2023/11/01 12:32:41;;;;;;;2.85;0.60;;;15.20;90.50;;;;;;5133917;28;20094;-76
2023/11/01 12:35:09;;;;;;;2.15;0.85;;;15.20;90.50;;;;;;5085484;27;20038;-76
2023/11/01 12:37:36;;;;;;;1.52;0.60;;;15.30;90.60;;;;;;5115278;28;20035;-77
2023/11/01 12:40:13;;;;;;;1.08;0.50;;;15.10;90.50;;;;;;5113924;28;20043;-77
2023/11/01 12:42:43;;;;;;;1.70;0.50;;;15.10;90.50;;;;;;5097814;28;20100;-76
2023/11/01 12:45:10;;;;;;;0.95;0.50;;;15.20;90.80;;;;;;5098473;28;20040;-77
2023/11/01 12:47:46;;;;;;;1.90;0.50;;;15.20;90.50;;;;;;5098073;28;20066;-76
2023/11/01 12:50:17;;;;;;;2.05;0.82;;;15.20;90.40;;;;;;5133500;28;20035;-77
2023/11/01 12:52:43;;;;;;;1.77;0.50;;;15.30;90.40;;;;;;5114781;28;20051;-77
2023/11/01 12:55:29;;;;;;;1.73;0.60;;;15.40;90.30;;;;;;5080448;28;20087;-78
2023/11/01 12:57:58;;;;;;;1.70;0.50;;;15.30;90.20;;;;;;5117384;28;20046;-77
2023/11/01 13:00:24;;;;;;;0.80;0.60;;;15.30;90.20;;;;;;5133313;28;20035;-77
2023/11/01 13:02:50;;;;;;;1.30;0.40;;;15.20;90.10;;;;;;5098064;28;20043;-77
2023/11/01 13:05:20;;;;;;;0.60;0.50;;;15.30;90.20;;;;;;5133257;28;20035;-77
2023/11/01 13:07:46;;;;;;;0.80;0.50;;;15.20;90.30;;;;;;5112619;28;20044;-78
2023/11/01 13:10:14;;;;;;;0.65;0.40;;;15.00;90.30;;;;;;5098429;28;20043;-76
2023/11/01 13:12:44;;;;;;;2.67;0.60;;;15.00;90.40;;;;;;5114646;28;20046;-77
2023/11/01 13:15:10;;;;;;;1.37;0.40;;;15.10;90.40;;;;;;5081471;28;20121;-77
2023/11/01 13:17:36;;;;;;;0.80;0.40;;;15.00;90.40;;;;;;5114662;28;20272;-76
2023/11/01 13:20:02;;;;;;;1.30;0.50;;;15.10;90.40;;;;;;5079160;28;20044;-77
2023/11/01 13:22:28;;;;;;;1.40;0.50;;;15.10;90.40;;;;;;5097563;28;20388;-76
2023/11/01 13:24:54;;;;;;;0.52;0.38;;;15.10;90.30;;;;;;5114433;28;20031;-77
2023/11/01 13:27:19;;;;;;;1.02;0.60;;;15.10;90.20;;;;;;5114438;28;20063;-76
2023/11/01 13:29:48;;;;;;;2.50;0.60;;;15.20;90.20;;;;;;5097115;28;20043;-77
2023/11/01 13:32:13;;;;;;;0.82;0.43;;;15.10;90.20;;;;;;5097874;28;20042;-77
2023/11/01 13:34:39;;;;;;;0.40;0.30;;;15.10;90.20;;;;;;5114734;28;20043;-75
2023/11/01 13:37:06;;;;;;;3.95;0.63;;;15.10;90.20;;;;;;5133065;28;20050;-75
2023/11/01 13:39:32;;;;;;;1.25;0.47;;;15.10;90.20;;;;;;5132542;28;20039;-76
2023/11/01 13:41:58;;;;;;;2.03;0.50;;;14.90;90.20;;;;;;5132601;28;20056;-77
2023/11/01 13:44:24;;;;;;;1.60;0.52;;;14.90;90.20;;;;;;5114124;28;20035;-77
2023/11/01 13:46:50;;;;;;;1.17;0.57;;;15.00;90.20;;;;;;5097370;27;20031;-76
2023/11/01 13:49:42;;;;;;;1.63;0.40;;;15.00;90.20;;;;;;5117069;28;20109;-78
2023/11/01 13:52:12;;;;;;;2.15;0.40;;;15.00;90.10;;;;;;5136179;28;20047;-77
2023/11/01 13:55:07;;;;;;;0.65;0.40;;;15.00;90.40;;;;;;5039486;28;20067;-77
2023/11/01 13:57:32;;;;;;;0.70;0.28;;;15.00;90.10;;;;;;4976873;28;20162;-78
2023/11/01 14:00:36;;;;;;;1.45;0.43;;;15.00;90.10;;;;;;4993395;28;20046;-77
2023/11/01 14:03:00;;;;;;;0.80;0.30;;;14.90;90.10;;;;;;4977888;28;20516;-77
2023/11/01 14:05:40;;;;;;;0.93;0.45;;;14.90;90.20;;;;;;4977489;28;20058;-78
2023/11/01 14:08:08;;;;;;;0.63;0.40;;;14.90;90.20;;;;;;4993048;28;20045;-78
2023/11/01 14:10:37;;;;;;;0.55;0.40;;;14.90;90.20;;;;;;4977053;28;20046;-78
2023/11/01 14:13:06;;;;;;;0.32;0.22;;;14.90;90.20;;;;;;4961276;28;20035;-78
2023/11/01 14:15:33;;;;;;;0.40;0.30;;;14.90;90.10;;;;;;4960980;28;20038;-77
2023/11/01 14:18:01;;;;;;;0.60;0.40;;;15.00;90.20;;;;;;4978055;28;20049;-77
2023/11/01 14:20:30;;;;;;;0.20;0.20;;;14.90;90.10;;;;;;5014767;28;20133;-79
2023/11/01 14:22:59;;;;;;;0.85;0.35;;;14.90;90.10;;;;;;5112664;28;20051;-77
2023/11/01 14:25:25;;;;;;;0.75;0.32;;;14.90;90.00;;;;;;5072817;28;20032;-77
2023/11/01 14:27:51;;;;;;;0.50;0.40;;;14.90;90.30;;;;;;5055631;28;20044;-77
2023/11/01 14:30:18;;;;;;;0.30;0.30;;;14.90;90.00;;;;;;5039222;28;20047;-77
2023/11/01 14:32:45;;;;;;;1.17;0.30;;;14.80;90.00;;;;;;5070494;28;20102;-78
2023/11/01 14:35:11;;;;;;;0.85;0.38;;;14.90;90.00;;;;;;5039470;28;20099;-75
2023/11/01 14:37:40;;;;;;;0.45;0.30;;;14.70;90.00;;;;;;5038690;28;20052;-78
2023/11/01 14:40:08;;;;;;;0.55;0.40;;;14.70;90.00;;;;;;5022121;28;20114;-76
2023/11/01 14:42:34;;;;;;;2.45;0.50;;;14.80;90.00;;;;;;5070150;28;20450;-76
2023/11/01 14:45:01;;;;;;;1.85;0.40;;;14.70;89.90;;;;;;5069952;28;20082;-76
2023/11/01 14:47:27;;;;;;;1.00;0.50;;;14.70;90.00;;;;;;5070275;28;20048;-76
2023/11/01 14:49:52;;;;;;;0.63;0.40;;;14.70;90.00;;;;;;5036423;28;20545;-77
2023/11/01 14:52:18;;;;;;;1.65;0.65;;;14.70;90.00;;;;;;5012094;28;20042;-76
2023/11/01 14:54:44;;;;;;;0.88;0.50;;;14.70;89.90;;;;;;5012436;28;20139;-76
2023/11/01 14:57:10;;;;;;;1.55;0.45;;;14.60;89.80;;;;;;5045360;28;20103;-77
2023/11/01 14:59:35;;;;;;;1.05;0.45;;;14.60;89.70;;;;;;5055250;28;20052;-76
2023/11/01 15:02:04;;;;;;;1.45;0.38;;;14.60;89.80;;;;;;5055362;28;20037;-78
2023/11/01 15:04:30;;;;;;;1.30;0.47;;;14.60;90.10;;;;;;5021769;28;20040;-76
2023/11/01 15:06:56;;;;;;;1.80;0.68;;;14.50;89.70;;;;;;5054856;28;20102;-75
2023/11/01 15:09:28;;;;;;;1.83;0.60;;;14.50;89.90;;;;;;5055039;28;20557;-77
2023/11/01 15:11:53;;;;;;;1.70;0.63;;;14.60;89.40;;;;;;5055915;28;20048;-77
2023/11/01 15:14:19;;;;;;;1.60;0.40;;;14.60;89.30;;;;;;5055306;28;20127;-78
2023/11/01 15:16:45;;;;;;;1.50;0.60;;;14.50;89.30;;;;;;5054862;28;20048;-78
2023/11/01 15:19:14;;;;;;;1.38;0.77;;;14.60;89.40;;;;;;5055102;28;20114;-78
2023/11/01 15:21:43;;;;;;;1.10;0.50;;;14.50;89.30;;;;;;5054672;28;20135;-77
2023/11/01 15:24:09;;;;;;;1.33;0.50;;;14.50;89.20;;;;;;5068956;28;20036;-77
2023/11/01 15:26:35;;;;;;;2.28;0.70;;;14.50;89.20;;;;;;5074906;28;20042;-77
2023/11/01 15:29:02;;;;;;;0.85;0.50;;;14.60;89.10;;;;;;5074456;28;20047;-77
2023/11/01 15:31:28;;;;;;;2.05;0.70;;;14.60;88.90;;;;;;5091910;28;20044;-77
2023/11/01 15:33:54;;;;;;;1.13;0.40;;;14.60;88.80;;;;;;5091482;28;20040;-76